sensor_id;sensor_type;location;lat;lon;timestamp;P1;durP1;ratioP1;P2;durP2;ratioP2
19191;SDS011;9728;48.194;16.346;2022-12-07T00:01:13;3.90;;;2.87;;
19191;SDS011;9728;48.194;16.346;2022-12-07T00:06:18;3.67;;;2.30;;
19191;SDS011;9728;48.194;16.346;2022-12-07T00:11:23;3.33;;;2.33;;
19191;SDS011;9728;48.194;16.346;2022-12-07T00:16:28;3.37;;;2.47;;
19191;SDS011;9728;48.194;16.346;2022-12-07T00:21:33;3.87;;;2.50;;
19191;SDS011;9728;48.194;16.346;2022-12-07T00:26:40;3.13;;;2.63;;
19191;SDS011;9728;48.194;16.346;2022-12-07T00:31:45;3.73;;;2.60;;
19191;SDS011;9728;48.194;16.346;2022-12-07T00:36:49;2.87;;;2.10;;
19191;SDS011;9728;48.194;16.346;2022-12-07T00:41:54;5.53;;;3.00;;
19191;SDS011;9728;48.194;16.346;2022-12-07T00:46:57;3.80;;;2.87;;
19191;SDS011;9728;48.194;16.346;2022-12-07T00:52:00;3.53;;;2.43;;
19191;SDS011;9728;48.194;16.346;2022-12-07T00:57:05;4.83;;;3.40;;
19191;SDS011;9728;48.194;16.346;2022-12-07T01:02:08;4.40;;;3.07;;
19191;SDS011;9728;48.194;16.346;2022-12-07T01:07:11;4.07;;;3.13;;
19191;SDS011;9728;48.194;16.346;2022-12-07T01:12:16;5.10;;;3.57;;
19191;SDS011;9728;48.194;16.346;2022-12-07T01:17:19;6.07;;;3.60;;
19191;SDS011;9728;48.194;16.346;2022-12-07T01:22:23;4.83;;;3.50;;
19191;SDS011;9728;48.194;16.346;2022-12-07T01:27:27;5.27;;;3.50;;
19191;SDS011;9728;48.194;16.346;2022-12-07T01:32:31;5.93;;;3.53;;
19191;SDS011;9728;48.194;16.346;2022-12-07T01:37:35;5.30;;;3.60;;
19191;SDS011;9728;48.194;16.346;2022-12-07T01:42:39;6.20;;;3.53;;
19191;SDS011;9728;48.194;16.346;2022-12-07T01:47:43;4.70;;;3.20;;
19191;SDS011;9728;48.194;16.346;2022-12-07T01:52:49;4.47;;;2.83;;
19191;SDS011;9728;48.194;16.346;2022-12-07T01:57:55;5.00;;;3.57;;
19191;SDS011;9728;48.194;16.346;2022-12-07T02:03:00;5.37;;;3.23;;
19191;SDS011;9728;48.194;16.346;2022-12-07T02:08:08;5.70;;;3.60;;
19191;SDS011;9728;48.194;16.346;2022-12-07T02:13:15;4.70;;;3.10;;
19191;SDS011;9728;48.194;16.346;2022-12-07T02:18:23;5.33;;;3.70;;
19191;SDS011;9728;48.194;16.346;2022-12-07T02:29:24;5.17;;;3.10;;
19191;SDS011;9728;48.194;16.346;2022-12-07T02:34:35;4.33;;;2.77;;
19191;SDS011;9728;48.194;16.346;2022-12-07T02:39:45;5.10;;;3.00;;
19191;SDS011;9728;48.194;16.346;2022-12-07T02:44:54;4.57;;;3.13;;
19191;SDS011;9728;48.194;16.346;2022-12-07T02:49:57;4.13;;;2.90;;
19191;SDS011;9728;48.194;16.346;2022-12-07T02:55:01;4.00;;;2.83;;
19191;SDS011;9728;48.194;16.346;2022-12-07T03:00:07;4.63;;;2.83;;
19191;SDS011;9728;48.194;16.346;2022-12-07T03:05:17;4.73;;;2.90;;
19191;SDS011;9728;48.194;16.346;2022-12-07T03:10:33;5.40;;;3.63;;
19191;SDS011;9728;48.194;16.346;2022-12-07T03:15:45;5.27;;;3.50;;
19191;SDS011;9728;48.194;16.346;2022-12-07T03:20:55;5.87;;;3.17;;
19191;SDS011;9728;48.194;16.346;2022-12-07T03:26:02;3.67;;;2.77;;
19191;SDS011;9728;48.194;16.346;2022-12-07T03:31:11;4.07;;;2.60;;
19191;SDS011;9728;48.194;16.346;2022-12-07T03:36:20;4.83;;;2.93;;
19191;SDS011;9728;48.194;16.346;2022-12-07T03:41:29;5.07;;;3.37;;
19191;SDS011;9728;48.194;16.346;2022-12-07T03:46:37;4.37;;;2.83;;
19191;SDS011;9728;48.194;16.346;2022-12-07T03:51:46;5.40;;;3.40;;
19191;SDS011;9728;48.194;16.346;2022-12-07T03:56:55;5.43;;;2.87;;
19191;SDS011;9728;48.194;16.346;2022-12-07T04:02:03;3.70;;;2.70;;
19191;SDS011;9728;48.194;16.346;2022-12-07T04:07:08;4.17;;;2.50;;
19191;SDS011;9728;48.194;16.346;2022-12-07T04:12:12;3.40;;;2.47;;
19191;SDS011;9728;48.194;16.346;2022-12-07T04:17:16;3.97;;;2.47;;
19191;SDS011;9728;48.194;16.346;2022-12-07T04:22:20;3.47;;;2.30;;
19191;SDS011;9728;48.194;16.346;2022-12-07T04:27:23;4.40;;;2.80;;
19191;SDS011;9728;48.194;16.346;2022-12-07T04:32:28;4.17;;;2.90;;
19191;SDS011;9728;48.194;16.346;2022-12-07T04:37:31;4.33;;;2.87;;
19191;SDS011;9728;48.194;16.346;2022-12-07T04:42:34;4.07;;;2.63;;
19191;SDS011;9728;48.194;16.346;2022-12-07T04:47:39;3.40;;;2.50;;
19191;SDS011;9728;48.194;16.346;2022-12-07T04:52:43;4.37;;;2.70;;
19191;SDS011;9728;48.194;16.346;2022-12-07T04:57:46;3.37;;;2.23;;
19191;SDS011;9728;48.194;16.346;2022-12-07T05:02:51;5.37;;;2.57;;
19191;SDS011;9728;48.194;16.346;2022-12-07T05:07:55;4.27;;;2.63;;
19191;SDS011;9728;48.194;16.346;2022-12-07T05:12:59;4.97;;;2.73;;
19191;SDS011;9728;48.194;16.346;2022-12-07T05:18:04;3.87;;;2.53;;
19191;SDS011;9728;48.194;16.346;2022-12-07T05:23:07;2.77;;;2.07;;
19191;SDS011;9728;48.194;16.346;2022-12-07T05:28:10;2.97;;;2.10;;
19191;SDS011;9728;48.194;16.346;2022-12-07T05:33:17;5.57;;;2.60;;
19191;SDS011;9728;48.194;16.346;2022-12-07T05:38:20;4.47;;;2.73;;
19191;SDS011;9728;48.194;16.346;2022-12-07T05:43:23;3.27;;;2.27;;
19191;SDS011;9728;48.194;16.346;2022-12-07T05:48:28;2.83;;;2.03;;
19191;SDS011;9728;48.194;16.346;2022-12-07T05:53:31;3.37;;;2.00;;
19191;SDS011;9728;48.194;16.346;2022-12-07T05:58:35;3.03;;;2.13;;
19191;SDS011;9728;48.194;16.346;2022-12-07T06:03:56;3.60;;;1.90;;
19191;SDS011;9728;48.194;16.346;2022-12-07T06:09:00;2.90;;;1.97;;
19191;SDS011;9728;48.194;16.346;2022-12-07T06:14:03;4.17;;;2.10;;
19191;SDS011;9728;48.194;16.346;2022-12-07T06:19:08;2.80;;;1.90;;
19191;SDS011;9728;48.194;16.346;2022-12-07T06:24:12;2.93;;;1.70;;
19191;SDS011;9728;48.194;16.346;2022-12-07T06:29:17;3.13;;;1.80;;
19191;SDS011;9728;48.194;16.346;2022-12-07T06:34:22;2.77;;;1.83;;
19191;SDS011;9728;48.194;16.346;2022-12-07T06:39:27;3.67;;;1.90;;
19191;SDS011;9728;48.194;16.346;2022-12-07T06:44:31;2.30;;;1.80;;
19191;SDS011;9728;48.194;16.346;2022-12-07T06:49:36;3.10;;;2.03;;
19191;SDS011;9728;48.194;16.346;2022-12-07T06:54:39;3.20;;;2.00;;
19191;SDS011;9728;48.194;16.346;2022-12-07T06:59:42;3.87;;;2.00;;
19191;SDS011;9728;48.194;16.346;2022-12-07T07:04:47;2.43;;;1.73;;
19191;SDS011;9728;48.194;16.346;2022-12-07T07:09:51;2.67;;;1.80;;
19191;SDS011;9728;48.194;16.346;2022-12-07T07:14:54;2.40;;;1.90;;
19191;SDS011;9728;48.194;16.346;2022-12-07T07:19:59;2.20;;;2.00;;
19191;SDS011;9728;48.194;16.346;2022-12-07T07:25:03;2.47;;;1.73;;
19191;SDS011;9728;48.194;16.346;2022-12-07T07:30:07;3.77;;;2.20;;
19191;SDS011;9728;48.194;16.346;2022-12-07T07:35:12;2.43;;;1.90;;
19191;SDS011;9728;48.194;16.346;2022-12-07T07:40:16;3.30;;;1.97;;
19191;SDS011;9728;48.194;16.346;2022-12-07T07:45:20;2.83;;;1.87;;
19191;SDS011;9728;48.194;16.346;2022-12-07T07:50:27;2.27;;;1.40;;
19191;SDS011;9728;48.194;16.346;2022-12-07T07:55:30;2.57;;;1.80;;
19191;SDS011;9728;48.194;16.346;2022-12-07T08:00:33;2.63;;;1.83;;
19191;SDS011;9728;48.194;16.346;2022-12-07T08:05:38;2.27;;;1.93;;
19191;SDS011;9728;48.194;16.346;2022-12-07T08:10:42;2.70;;;1.67;;
19191;SDS011;9728;48.194;16.346;2022-12-07T08:15:46;2.80;;;2.00;;
19191;SDS011;9728;48.194;16.346;2022-12-07T08:20:52;2.20;;;1.90;;
19191;SDS011;9728;48.194;16.346;2022-12-07T08:26:01;2.37;;;1.70;;
19191;SDS011;9728;48.194;16.346;2022-12-07T08:31:06;3.13;;;1.97;;
19191;SDS011;9728;48.194;16.346;2022-12-07T08:36:12;2.73;;;2.00;;
19191;SDS011;9728;48.194;16.346;2022-12-07T08:41:16;3.50;;;1.97;;
19191;SDS011;9728;48.194;16.346;2022-12-07T08:46:20;2.90;;;1.97;;
19191;SDS011;9728;48.194;16.346;2022-12-07T08:51:29;3.07;;;2.03;;
19191;SDS011;9728;48.194;16.346;2022-12-07T08:56:33;2.20;;;1.80;;
19191;SDS011;9728;48.194;16.346;2022-12-07T09:01:37;3.93;;;1.97;;
19191;SDS011;9728;48.194;16.346;2022-12-07T09:06:42;2.00;;;1.77;;
19191;SDS011;9728;48.194;16.346;2022-12-07T09:11:46;2.53;;;1.80;;
19191;SDS011;9728;48.194;16.346;2022-12-07T09:16:49;2.33;;;2.10;;
19191;SDS011;9728;48.194;16.346;2022-12-07T09:21:54;2.67;;;2.00;;
19191;SDS011;9728;48.194;16.346;2022-12-07T09:26:57;2.97;;;1.90;;
19191;SDS011;9728;48.194;16.346;2022-12-07T09:32:01;3.33;;;2.03;;
19191;SDS011;9728;48.194;16.346;2022-12-07T09:37:13;2.90;;;2.03;;
19191;SDS011;9728;48.194;16.346;2022-12-07T09:42:23;3.90;;;2.57;;
19191;SDS011;9728;48.194;16.346;2022-12-07T09:47:31;4.77;;;2.97;;
19191;SDS011;9728;48.194;16.346;2022-12-07T09:52:37;4.10;;;2.70;;
19191;SDS011;9728;48.194;16.346;2022-12-07T09:57:42;3.47;;;2.47;;
19191;SDS011;9728;48.194;16.346;2022-12-07T10:02:46;3.97;;;2.40;;
19191;SDS011;9728;48.194;16.346;2022-12-07T10:07:53;3.80;;;2.77;;
19191;SDS011;9728;48.194;16.346;2022-12-07T10:12:58;3.37;;;2.33;;
19191;SDS011;9728;48.194;16.346;2022-12-07T10:18:03;3.20;;;2.30;;
19191;SDS011;9728;48.194;16.346;2022-12-07T10:23:13;3.17;;;2.47;;
19191;SDS011;9728;48.194;16.346;2022-12-07T10:28:18;2.93;;;2.00;;
19191;SDS011;9728;48.194;16.346;2022-12-07T10:33:29;2.87;;;2.10;;
19191;SDS011;9728;48.194;16.346;2022-12-07T10:38:35;2.70;;;2.10;;
19191;SDS011;9728;48.194;16.346;2022-12-07T10:43:53;2.60;;;1.83;;
19191;SDS011;9728;48.194;16.346;2022-12-07T10:48:59;3.20;;;2.17;;
19191;SDS011;9728;48.194;16.346;2022-12-07T10:54:17;4.60;;;2.10;;
19191;SDS011;9728;48.194;16.346;2022-12-07T10:59:34;3.07;;;2.10;;
19191;SDS011;9728;48.194;16.346;2022-12-07T11:04:59;2.50;;;2.20;;
19191;SDS011;9728;48.194;16.346;2022-12-07T11:10:13;3.27;;;2.17;;
19191;SDS011;9728;48.194;16.346;2022-12-07T11:15:22;3.50;;;2.30;;
19191;SDS011;9728;48.194;16.346;2022-12-07T11:20:39;2.40;;;2.00;;
19191;SDS011;9728;48.194;16.346;2022-12-07T11:25:52;3.33;;;2.30;;
19191;SDS011;9728;48.194;16.346;2022-12-07T11:31:02;2.83;;;2.13;;
19191;SDS011;9728;48.194;16.346;2022-12-07T11:36:17;2.50;;;1.90;;
19191;SDS011;9728;48.194;16.346;2022-12-07T11:41:35;2.77;;;1.80;;
19191;SDS011;9728;48.194;16.346;2022-12-07T11:46:45;2.27;;;1.80;;
19191;SDS011;9728;48.194;16.346;2022-12-07T11:51:53;2.00;;;1.70;;
19191;SDS011;9728;48.194;16.346;2022-12-07T11:57:03;2.93;;;2.27;;
19191;SDS011;9728;48.194;16.346;2022-12-07T12:02:19;2.37;;;1.80;;
19191;SDS011;9728;48.194;16.346;2022-12-07T12:07:27;5.30;;;2.17;;
19191;SDS011;9728;48.194;16.346;2022-12-07T12:13:05;3.27;;;1.60;;
19191;SDS011;9728;48.194;16.346;2022-12-07T12:18:56;2.87;;;1.90;;
19191;SDS011;9728;48.194;16.346;2022-12-07T12:24:14;2.67;;;1.77;;
19191;SDS011;9728;48.194;16.346;2022-12-07T12:29:23;3.30;;;1.93;;
19191;SDS011;9728;48.194;16.346;2022-12-07T12:34:37;2.00;;;1.77;;
19191;SDS011;9728;48.194;16.346;2022-12-07T12:45:33;2.60;;;2.00;;
19191;SDS011;9728;48.194;16.346;2022-12-07T12:50:37;3.40;;;2.47;;
19191;SDS011;9728;48.194;16.346;2022-12-07T12:55:48;2.97;;;1.63;;
19191;SDS011;9728;48.194;16.346;2022-12-07T13:06:46;2.67;;;2.13;;
19191;SDS011;9728;48.194;16.346;2022-12-07T13:11:50;2.70;;;1.97;;
19191;SDS011;9728;48.194;16.346;2022-12-07T13:17:07;2.20;;;1.87;;
19191;SDS011;9728;48.194;16.346;2022-12-07T13:27:51;3.60;;;1.73;;
19191;SDS011;9728;48.194;16.346;2022-12-07T13:33:03;3.40;;;2.03;;
19191;SDS011;9728;48.194;16.346;2022-12-07T13:38:15;3.17;;;1.97;;
19191;SDS011;9728;48.194;16.346;2022-12-07T13:43:24;3.63;;;2.00;;
19191;SDS011;9728;48.194;16.346;2022-12-07T13:48:32;2.57;;;1.80;;
19191;SDS011;9728;48.194;16.346;2022-12-07T13:53:45;2.70;;;1.77;;
19191;SDS011;9728;48.194;16.346;2022-12-07T13:58:49;2.07;;;1.70;;
19191;SDS011;9728;48.194;16.346;2022-12-07T14:03:55;3.00;;;2.00;;
19191;SDS011;9728;48.194;16.346;2022-12-07T14:09:08;3.93;;;2.37;;
19191;SDS011;9728;48.194;16.346;2022-12-07T14:14:19;3.23;;;2.13;;
19191;SDS011;9728;48.194;16.346;2022-12-07T14:30:23;2.67;;;1.60;;
19191;SDS011;9728;48.194;16.346;2022-12-07T14:35:31;2.97;;;1.97;;
19191;SDS011;9728;48.194;16.346;2022-12-07T14:40:35;3.67;;;2.20;;
19191;SDS011;9728;48.194;16.346;2022-12-07T14:45:38;3.57;;;2.20;;
19191;SDS011;9728;48.194;16.346;2022-12-07T14:50:44;3.43;;;2.17;;
19191;SDS011;9728;48.194;16.346;2022-12-07T14:56:13;2.90;;;2.13;;
19191;SDS011;9728;48.194;16.346;2022-12-07T15:01:16;3.07;;;2.30;;
19191;SDS011;9728;48.194;16.346;2022-12-07T15:06:21;3.17;;;2.53;;
19191;SDS011;9728;48.194;16.346;2022-12-07T15:11:25;3.77;;;2.13;;
19191;SDS011;9728;48.194;16.346;2022-12-07T15:16:28;3.33;;;2.40;;
19191;SDS011;9728;48.194;16.346;2022-12-07T15:21:53;4.10;;;2.57;;
19191;SDS011;9728;48.194;16.346;2022-12-07T15:26:57;3.77;;;2.53;;
19191;SDS011;9728;48.194;16.346;2022-12-07T15:32:01;4.93;;;3.10;;
19191;SDS011;9728;48.194;16.346;2022-12-07T15:37:06;4.63;;;2.80;;
19191;SDS011;9728;48.194;16.346;2022-12-07T15:42:09;4.07;;;2.73;;
19191;SDS011;9728;48.194;16.346;2022-12-07T15:47:13;4.57;;;2.53;;
19191;SDS011;9728;48.194;16.346;2022-12-07T15:52:18;3.97;;;2.70;;
19191;SDS011;9728;48.194;16.346;2022-12-07T15:57:21;4.53;;;3.13;;
19191;SDS011;9728;48.194;16.346;2022-12-07T16:02:26;4.50;;;2.83;;
19191;SDS011;9728;48.194;16.346;2022-12-07T16:07:31;3.97;;;2.77;;
19191;SDS011;9728;48.194;16.346;2022-12-07T16:12:34;4.17;;;3.03;;
19191;SDS011;9728;48.194;16.346;2022-12-07T16:17:37;3.83;;;2.70;;
19191;SDS011;9728;48.194;16.346;2022-12-07T16:22:42;4.33;;;2.10;;
19191;SDS011;9728;48.194;16.346;2022-12-07T16:27:46;3.57;;;2.23;;
19191;SDS011;9728;48.194;16.346;2022-12-07T16:32:49;3.43;;;2.70;;
19191;SDS011;9728;48.194;16.346;2022-12-07T16:37:54;4.40;;;2.63;;
19191;SDS011;9728;48.194;16.346;2022-12-07T16:42:57;4.13;;;2.77;;
19191;SDS011;9728;48.194;16.346;2022-12-07T16:48:05;3.70;;;2.50;;
19191;SDS011;9728;48.194;16.346;2022-12-07T16:53:10;3.27;;;2.23;;
19191;SDS011;9728;48.194;16.346;2022-12-07T16:58:16;5.10;;;3.23;;
19191;SDS011;9728;48.194;16.346;2022-12-07T17:03:20;5.47;;;3.30;;
19191;SDS011;9728;48.194;16.346;2022-12-07T17:08:25;5.30;;;2.80;;
19191;SDS011;9728;48.194;16.346;2022-12-07T17:13:28;4.23;;;2.70;;
19191;SDS011;9728;48.194;16.346;2022-12-07T17:18:49;6.13;;;2.93;;
19191;SDS011;9728;48.194;16.346;2022-12-07T17:23:54;3.87;;;2.80;;
19191;SDS011;9728;48.194;16.346;2022-12-07T17:28:57;5.10;;;3.17;;
19191;SDS011;9728;48.194;16.346;2022-12-07T17:34:01;4.00;;;2.83;;
19191;SDS011;9728;48.194;16.346;2022-12-07T17:39:07;4.63;;;3.20;;
19191;SDS011;9728;48.194;16.346;2022-12-07T17:44:14;5.00;;;3.50;;
19191;SDS011;9728;48.194;16.346;2022-12-07T17:49:25;4.70;;;2.70;;
19191;SDS011;9728;48.194;16.346;2022-12-07T17:54:33;5.07;;;2.90;;
19191;SDS011;9728;48.194;16.346;2022-12-07T17:59:38;4.17;;;2.70;;
19191;SDS011;9728;48.194;16.346;2022-12-07T18:04:41;3.73;;;2.80;;
19191;SDS011;9728;48.194;16.346;2022-12-07T18:09:48;4.43;;;2.60;;
19191;SDS011;9728;48.194;16.346;2022-12-07T18:14:53;4.77;;;2.70;;
19191;SDS011;9728;48.194;16.346;2022-12-07T18:19:57;3.47;;;2.57;;
19191;SDS011;9728;48.194;16.346;2022-12-07T18:25:03;4.40;;;2.80;;
19191;SDS011;9728;48.194;16.346;2022-12-07T18:30:08;3.70;;;2.47;;
19191;SDS011;9728;48.194;16.346;2022-12-07T18:35:13;4.17;;;2.87;;
19191;SDS011;9728;48.194;16.346;2022-12-07T18:40:19;4.87;;;3.13;;
19191;SDS011;9728;48.194;16.346;2022-12-07T18:45:23;4.10;;;2.63;;
19191;SDS011;9728;48.194;16.346;2022-12-07T18:50:30;5.33;;;2.80;;
19191;SDS011;9728;48.194;16.346;2022-12-07T18:55:38;5.10;;;2.90;;
19191;SDS011;9728;48.194;16.346;2022-12-07T19:00:42;3.00;;;2.10;;
19191;SDS011;9728;48.194;16.346;2022-12-07T19:05:47;4.27;;;2.90;;
19191;SDS011;9728;48.194;16.346;2022-12-07T19:10:53;3.67;;;2.30;;
19191;SDS011;9728;48.194;16.346;2022-12-07T19:16:24;3.93;;;2.60;;
19191;SDS011;9728;48.194;16.346;2022-12-07T19:21:28;3.93;;;2.70;;
19191;SDS011;9728;48.194;16.346;2022-12-07T19:26:36;4.30;;;2.77;;
19191;SDS011;9728;48.194;16.346;2022-12-07T19:31:40;3.57;;;2.43;;
19191;SDS011;9728;48.194;16.346;2022-12-07T19:36:45;3.77;;;2.13;;
19191;SDS011;9728;48.194;16.346;2022-12-07T19:41:54;4.10;;;2.47;;
19191;SDS011;9728;48.194;16.346;2022-12-07T19:47:00;3.27;;;2.13;;
19191;SDS011;9728;48.194;16.346;2022-12-07T19:52:07;4.00;;;2.63;;
19191;SDS011;9728;48.194;16.346;2022-12-07T19:57:17;4.93;;;2.20;;
19191;SDS011;9728;48.194;16.346;2022-12-07T20:02:25;3.00;;;1.90;;
19191;SDS011;9728;48.194;16.346;2022-12-07T20:07:29;3.50;;;2.27;;
19191;SDS011;9728;48.194;16.346;2022-12-07T20:12:40;5.00;;;2.43;;
19191;SDS011;9728;48.194;16.346;2022-12-07T20:18:02;3.53;;;2.33;;
19191;SDS011;9728;48.194;16.346;2022-12-07T20:23:07;3.83;;;2.33;;
19191;SDS011;9728;48.194;16.346;2022-12-07T20:28:13;3.23;;;2.37;;
19191;SDS011;9728;48.194;16.346;2022-12-07T20:33:18;4.37;;;2.70;;
19191;SDS011;9728;48.194;16.346;2022-12-07T20:38:24;3.60;;;2.30;;
19191;SDS011;9728;48.194;16.346;2022-12-07T20:43:31;4.20;;;2.47;;
19191;SDS011;9728;48.194;16.346;2022-12-07T20:48:37;3.27;;;1.90;;
19191;SDS011;9728;48.194;16.346;2022-12-07T20:53:41;4.57;;;2.50;;
19191;SDS011;9728;48.194;16.346;2022-12-07T20:58:47;4.93;;;2.83;;
19191;SDS011;9728;48.194;16.346;2022-12-07T21:03:53;4.07;;;2.30;;
19191;SDS011;9728;48.194;16.346;2022-12-07T21:08:58;3.67;;;2.43;;
19191;SDS011;9728;48.194;16.346;2022-12-07T21:14:04;4.20;;;2.73;;
19191;SDS011;9728;48.194;16.346;2022-12-07T21:19:08;3.90;;;2.67;;
19191;SDS011;9728;48.194;16.346;2022-12-07T21:24:12;3.80;;;2.47;;
19191;SDS011;9728;48.194;16.346;2022-12-07T21:29:17;4.17;;;2.67;;
19191;SDS011;9728;48.194;16.346;2022-12-07T21:34:40;3.17;;;2.23;;
19191;SDS011;9728;48.194;16.346;2022-12-07T21:39:43;3.40;;;2.20;;
19191;SDS011;9728;48.194;16.346;2022-12-07T21:44:48;2.87;;;2.07;;
19191;SDS011;9728;48.194;16.346;2022-12-07T21:49:52;3.13;;;2.20;;
19191;SDS011;9728;48.194;16.346;2022-12-07T21:54:55;4.07;;;2.33;;
19191;SDS011;9728;48.194;16.346;2022-12-07T22:00:00;3.67;;;2.50;;
19191;SDS011;9728;48.194;16.346;2022-12-07T22:05:05;3.67;;;2.17;;
19191;SDS011;9728;48.194;16.346;2022-12-07T22:10:09;3.70;;;2.33;;
19191;SDS011;9728;48.194;16.346;2022-12-07T22:15:14;2.77;;;2.20;;
19191;SDS011;9728;48.194;16.346;2022-12-07T22:20:17;3.47;;;2.53;;
19191;SDS011;9728;48.194;16.346;2022-12-07T22:25:22;2.30;;;1.87;;
19191;SDS011;9728;48.194;16.346;2022-12-07T22:30:27;3.40;;;2.23;;
19191;SDS011;9728;48.194;16.346;2022-12-07T22:35:30;2.83;;;2.00;;
19191;SDS011;9728;48.194;16.346;2022-12-07T22:40:34;3.30;;;2.23;;
19191;SDS011;9728;48.194;16.346;2022-12-07T22:45:40;3.40;;;1.83;;
19191;SDS011;9728;48.194;16.346;2022-12-07T22:50:44;2.17;;;1.70;;
19191;SDS011;9728;48.194;16.346;2022-12-07T22:55:47;2.37;;;1.70;;
19191;SDS011;9728;48.194;16.346;2022-12-07T23:00:52;2.23;;;1.83;;
19191;SDS011;9728;48.194;16.346;2022-12-07T23:05:56;1.63;;;1.43;;
19191;SDS011;9728;48.194;16.346;2022-12-07T23:10:59;2.67;;;1.77;;
19191;SDS011;9728;48.194;16.346;2022-12-07T23:16:09;2.50;;;1.67;;
19191;SDS011;9728;48.194;16.346;2022-12-07T23:21:14;3.13;;;2.07;;
19191;SDS011;9728;48.194;16.346;2022-12-07T23:26:18;3.37;;;2.23;;
19191;SDS011;9728;48.194;16.346;2022-12-07T23:31:22;4.37;;;2.97;;
19191;SDS011;9728;48.194;16.346;2022-12-07T23:36:26;5.83;;;3.30;;
19191;SDS011;9728;48.194;16.346;2022-12-07T23:41:30;5.27;;;3.43;;
19191;SDS011;9728;48.194;16.346;2022-12-07T23:46:35;5.00;;;3.37;;
19191;SDS011;9728;48.194;16.346;2022-12-07T23:51:38;3.23;;;2.30;;
19191;SDS011;9728;48.194;16.346;2022-12-07T23:56:42;2.63;;;1.70;;
